Time;durP1;ratioP1;P1;durP2;ratioP2;P2;SDS_P1;SDS_P2;PMS_P1;PMS_P2;Temp;Humidity;BMP_temperature;BMP_pressure;BME280_temperature;BME280_humidity;BME280_pressure;Samples;Min_cycle;Max_cycle;Signal;HPM_P1;HPM_P2
2023/03/26 00:00:55;;;;;;;;;;;8.14;16.36;;;;;;2671850;76;20417;-91
2023/03/26 00:04:24;;;;;;;;;;;8.13;16.42;;;;;;2672116;76;20437;-90
2023/03/26 00:07:52;;;;;;;;;;;8.06;16.35;;;;;;2672061;76;20444;-91
2023/03/26 00:11:20;;;;;;;;;;;7.91;15.97;;;;;;2671233;76;20411;-92
2023/03/26 00:14:50;;;;;;;;;;;7.73;15.61;;;;;;2672251;76;20563;-91
2023/03/26 00:18:23;;;;;;;;;;;7.48;14.84;;;;;;2671740;76;20329;-91
2023/03/26 00:21:50;;;;;;;;;;;7.31;14.57;;;;;;2671888;76;20410;-92
2023/03/26 00:25:19;;;;;;;;;;;7.14;14.52;;;;;;2671973;76;20927;-91
2023/03/26 00:28:49;;;;;;;;;;;7.01;14.68;;;;;;2672694;76;20307;-90
2023/03/26 00:32:17;;;;;;;;;;;6.99;15.29;;;;;;2673165;76;20422;-91
2023/03/26 00:35:46;;;;;;;;;;;6.97;15.79;;;;;;2673267;76;20309;-91
2023/03/26 00:39:16;;;;;;;;;;;7.04;16.30;;;;;;2672428;76;20911;-91
2023/03/26 00:42:44;;;;;;;;;;;7.14;16.74;;;;;;2671999;76;20475;-90
2023/03/26 00:46:12;;;;;;;;;;;7.18;16.79;;;;;;2672382;76;20450;-90
2023/03/26 00:49:40;;;;;;;;;;;7.23;16.68;;;;;;2672183;76;20426;-90
2023/03/26 00:53:10;;;;;;;;;;;7.19;16.46;;;;;;2672299;76;20682;-91
2023/03/26 00:56:38;;;;;;;;;;;7.28;16.95;;;;;;2672466;76;20302;-90
2023/03/26 01:00:08;;;;;;;;;;;7.39;17.04;;;;;;2672064;76;20493;-91
2023/03/26 01:03:37;;;;;;;;;;;7.39;16.58;;;;;;2671034;76;20437;-90
2023/03/26 01:07:05;;;;;;;;;;;7.40;16.68;;;;;;2672268;76;21221;-89
2023/03/26 01:10:37;;;;;;;;;;;7.39;16.45;;;;;;2672457;76;20953;-91
2023/03/26 01:14:03;;;;;;;;;;;7.30;16.18;;;;;;2672789;76;20800;-91
2023/03/26 01:17:33;;;;;;;;;;;7.22;15.96;;;;;;2672306;76;20300;-91
2023/03/26 01:21:08;;;;;;;;;;;7.17;16.04;;;;;;2672823;76;20410;-91
2023/03/26 01:24:36;;;;;;;;;;;7.14;15.98;;;;;;2672171;76;20449;-90
2023/03/26 01:28:04;;;;;;;;;;;7.14;15.92;;;;;;2673137;76;20417;-89
2023/03/26 01:31:35;;;;;;;;;;;7.05;15.81;;;;;;2672512;76;20437;-91
2023/03/26 01:35:03;;;;;;;;;;;7.10;15.90;;;;;;2672809;76;20462;-90
2023/03/26 01:38:31;;;;;;;;;;;7.24;16.25;;;;;;2672494;76;20410;-91
2023/03/26 01:41:59;;;;;;;;;;;7.26;16.16;;;;;;2673117;76;20412;-91
2023/03/26 01:45:27;;;;;;;;;;;7.24;16.00;;;;;;2672896;76;20437;-91
2023/03/26 01:48:58;;;;;;;;;;;7.13;15.62;;;;;;2672044;76;20442;-91
2023/03/26 01:52:26;;;;;;;;;;;6.99;15.63;;;;;;2672914;76;20465;-91
2023/03/26 01:55:54;;;;;;;;;;;6.85;15.16;;;;;;2673250;76;20449;-91
2023/03/26 01:59:22;;;;;;;;;;;6.79;14.89;;;;;;2672313;76;20347;-91
2023/03/26 02:02:53;;;;;;;;;;;6.69;15.00;;;;;;2671593;76;20448;-91
2023/03/26 02:06:21;;;;;;;;;;;6.59;15.13;;;;;;2672814;76;20461;-91
2023/03/26 02:09:49;;;;;;;;;;;6.58;15.36;;;;;;2672525;76;20763;-91
2023/03/26 02:13:17;;;;;;;;;;;6.55;15.40;;;;;;2672895;76;20445;-91
2023/03/26 02:16:46;;;;;;;;;;;6.52;15.29;;;;;;2671541;76;20445;-90
2023/03/26 02:20:14;;;;;;;;;;;6.51;15.42;;;;;;2672616;76;20418;-90
2023/03/26 02:23:45;;;;;;;;;;;6.46;15.45;;;;;;2672699;76;20475;-90
2023/03/26 02:27:12;;;;;;;;;;;6.45;15.77;;;;;;2671959;76;20493;-89
2023/03/26 02:30:42;;;;;;;;;;;6.53;16.42;;;;;;2672768;76;20456;-91
2023/03/26 02:34:10;;;;;;;;;;;6.60;16.77;;;;;;2672633;76;20457;-91
2023/03/26 02:37:38;;;;;;;;;;;6.65;16.91;;;;;;2672741;76;20867;-91
2023/03/26 02:41:06;;;;;;;;;;;6.68;16.96;;;;;;2672845;76;20756;-90
2023/03/26 02:44:34;;;;;;;;;;;6.66;16.87;;;;;;2672673;76;20319;-91
2023/03/26 02:48:02;;;;;;;;;;;6.61;16.79;;;;;;2672495;76;20784;-91
2023/03/26 02:51:33;;;;;;;;;;;6.59;16.82;;;;;;2672702;76;20911;-90
2023/03/26 02:55:00;;;;;;;;;;;6.52;16.64;;;;;;2672466;76;20335;-91
2023/03/26 02:58:29;;;;;;;;;;;6.55;16.75;;;;;;2672540;76;20454;-90
2023/03/26 03:01:57;;;;;;;;;;;6.56;16.91;;;;;;2672749;76;20314;-90
2023/03/26 03:05:30;;;;;;;;;;;6.56;16.90;;;;;;2672408;76;20470;-90
2023/03/26 03:08:57;;;;;;;;;;;6.55;17.01;;;;;;2671319;76;20340;-91
2023/03/26 03:12:25;;;;;;;;;;;6.55;17.02;;;;;;2672439;76;20424;-90
2023/03/26 03:15:54;;;;;;;;;;;6.51;16.82;;;;;;2672656;76;20443;-91
2023/03/26 03:19:22;;;;;;;;;;;6.46;16.68;;;;;;2672009;76;20436;-90
2023/03/26 03:22:50;;;;;;;;;;;6.44;16.27;;;;;;2671763;76;20453;-90
2023/03/26 03:26:20;;;;;;;;;;;6.38;16.13;;;;;;2673064;76;20298;-91
2023/03/26 03:29:48;;;;;;;;;;;6.40;16.41;;;;;;2672286;76;20758;-90
2023/03/26 03:33:18;;;;;;;;;;;6.38;16.32;;;;;;2671613;76;20862;-90
2023/03/26 03:36:48;;;;;;;;;;;6.34;16.09;;;;;;2671897;76;20424;-92
2023/03/26 03:40:15;;;;;;;;;;;6.27;15.74;;;;;;2671160;76;20429;-90
2023/03/26 03:43:44;;;;;;;;;;;6.20;15.56;;;;;;2672416;76;20975;-91
2023/03/26 03:47:12;;;;;;;;;;;6.13;15.43;;;;;;2672149;76;20430;-91
2023/03/26 03:50:40;;;;;;;;;;;6.09;15.47;;;;;;2672208;76;20473;-90
2023/03/26 03:54:08;;;;;;;;;;;6.12;15.94;;;;;;2672722;76;20475;-90
2023/03/26 03:57:37;;;;;;;;;;;6.25;16.90;;;;;;2672330;76;20480;-90
2023/03/26 04:01:05;;;;;;;;;;;6.30;16.91;;;;;;2671907;76;20410;-90
2023/03/26 04:04:33;;;;;;;;;;;6.28;16.53;;;;;;2672863;76;20457;-91
2023/03/26 04:08:01;;;;;;;;;;;6.22;16.06;;;;;;2672522;76;20472;-90
2023/03/26 04:11:29;;;;;;;;;;;6.23;16.43;;;;;;2672133;76;20422;-90
2023/03/26 04:14:57;;;;;;;;;;;6.35;17.24;;;;;;2672182;76;20428;-91
2023/03/26 04:18:26;;;;;;;;;;;6.41;17.35;;;;;;2671621;76;20402;-91
2023/03/26 04:21:54;;;;;;;;;;;6.41;17.08;;;;;;2672001;76;20465;-91
2023/03/26 04:25:29;;;;;;;;;;;6.37;16.77;;;;;;2672418;76;20353;-91
2023/03/26 04:28:53;;;;;;;;;;;6.38;16.76;;;;;;2672015;76;20452;-90
2023/03/26 04:32:21;;;;;;;;;;;6.39;16.79;;;;;;2672493;76;20624;-88
2023/03/26 04:35:49;;;;;;;;;;;6.37;16.67;;;;;;2673107;76;20315;-90
2023/03/26 04:39:17;;;;;;;;;;;6.33;16.42;;;;;;2672860;76;20324;-90
2023/03/26 04:42:45;;;;;;;;;;;6.24;16.15;;;;;;2672594;76;20312;-92
2023/03/26 04:46:13;;;;;;;;;;;6.20;15.90;;;;;;2672229;76;20319;-91
2023/03/26 04:49:41;;;;;;;;;;;6.14;15.87;;;;;;2672758;76;20439;-90
2023/03/26 04:53:12;;;;;;;;;;;6.16;16.02;;;;;;2672877;76;20792;-90
2023/03/26 04:56:39;;;;;;;;;;;6.24;16.42;;;;;;2672610;76;20421;-91
2023/03/26 05:00:19;;;;;;;;;;;6.33;16.88;;;;;;2672254;76;20311;-90
2023/03/26 05:03:46;;;;;;;;;;;6.40;17.30;;;;;;2672599;76;20430;-92
2023/03/26 05:07:14;;;;;;;;;;;6.51;17.62;;;;;;2673811;76;20428;-92
2023/03/26 05:10:43;;;;;;;;;;;6.60;17.77;;;;;;2673815;76;20425;-92
2023/03/26 05:14:11;;;;;;;;;;;6.68;17.71;;;;;;2674269;76;20434;-92
2023/03/26 05:17:42;;;;;;;;;;;6.74;17.74;;;;;;2673201;76;20430;-92
2023/03/26 05:21:10;;;;;;;;;;;6.81;17.81;;;;;;2674258;76;20414;-91
2023/03/26 05:24:38;;;;;;;;;;;6.88;17.91;;;;;;2673677;76;20441;-92
2023/03/26 05:28:06;;;;;;;;;;;6.95;18.09;;;;;;2674012;76;20429;-92
2023/03/26 05:31:34;;;;;;;;;;;7.03;18.26;;;;;;2674227;76;20430;-92
2023/03/26 05:35:02;;;;;;;;;;;7.05;18.42;;;;;;2673959;76;20429;-92
2023/03/26 05:38:31;;;;;;;;;;;7.15;18.72;;;;;;2674380;76;20314;-92
2023/03/26 05:41:59;;;;;;;;;;;7.26;18.69;;;;;;2674134;76;20432;-92
2023/03/26 05:45:27;;;;;;;;;;;7.43;18.99;;;;;;2673481;76;20351;-92
2023/03/26 05:48:55;;;;;;;;;;;7.63;18.98;;;;;;2673465;76;20344;-91
2023/03/26 05:52:23;;;;;;;;;;;7.84;19.09;;;;;;2673724;76;20426;-92
2023/03/26 05:55:56;;;;;;;;;;;7.97;19.01;;;;;;2673751;76;20446;-92
2023/03/26 05:59:21;;;;;;;;;;;8.00;18.95;;;;;;2674056;76;20436;-92
2023/03/26 06:02:50;;;;;;;;;;;8.11;19.06;;;;;;2672939;76;20458;-91
2023/03/26 06:06:19;;;;;;;;;;;8.24;19.15;;;;;;2673388;76;20525;-93
2023/03/26 06:09:47;;;;;;;;;;;8.31;18.96;;;;;;2673450;76;20314;-92
2023/03/26 06:13:15;;;;;;;;;;;8.38;19.22;;;;;;2673186;76;20438;-91
2023/03/26 06:16:44;;;;;;;;;;;8.45;19.32;;;;;;2673986;76;20422;-91
2023/03/26 06:20:12;;;;;;;;;;;8.49;19.19;;;;;;2673430;76;20863;-91
2023/03/26 06:23:40;;;;;;;;;;;8.60;19.22;;;;;;2674382;76;20458;-92
2023/03/26 06:27:08;;;;;;;;;;;8.76;19.47;;;;;;2672852;76;20508;-92
2023/03/26 06:30:36;;;;;;;;;;;8.96;19.60;;;;;;2671359;76;20430;-91
2023/03/26 06:34:04;;;;;;;;;;;9.14;19.58;;;;;;2673889;76;20417;-92
2023/03/26 06:37:32;;;;;;;;;;;9.32;19.63;;;;;;2674252;76;20460;-91
2023/03/26 06:41:00;;;;;;;;;;;9.51;19.73;;;;;;2673536;76;20577;-92
2023/03/26 06:44:28;;;;;;;;;;;9.71;19.73;;;;;;2673878;76;20444;-91
2023/03/26 06:47:56;;;;;;;;;;;9.92;19.62;;;;;;2673394;76;20785;-92
2023/03/26 06:51:25;;;;;;;;;;;10.07;19.67;;;;;;2673537;76;20434;-93
2023/03/26 06:54:53;;;;;;;;;;;10.25;19.74;;;;;;2672381;76;20474;-92
2023/03/26 06:58:21;;;;;;;;;;;10.40;19.83;;;;;;2672603;76;20650;-92
2023/03/26 07:01:49;;;;;;;;;;;10.57;19.76;;;;;;2673241;76;20423;-92
2023/03/26 07:05:18;;;;;;;;;;;10.68;19.83;;;;;;2672950;76;20452;-92
2023/03/26 07:08:46;;;;;;;;;;;10.81;19.96;;;;;;2673033;76;20424;-91
2023/03/26 07:12:14;;;;;;;;;;;10.92;19.95;;;;;;2672106;76;20913;-91
2023/03/26 07:15:42;;;;;;;;;;;10.93;19.92;;;;;;2672931;76;20510;-91
2023/03/26 07:19:10;;;;;;;;;;;10.93;19.83;;;;;;2673287;76;20337;-91
2023/03/26 07:22:38;;;;;;;;;;;11.00;19.88;;;;;;2673648;76;20461;-91
2023/03/26 07:26:06;;;;;;;;;;;11.04;19.64;;;;;;2671435;76;20464;-91
2023/03/26 07:29:34;;;;;;;;;;;11.08;18.60;;;;;;2673772;76;20710;-91
2023/03/26 07:33:02;;;;;;;;;;;11.10;17.57;;;;;;2674787;76;20606;-91
2023/03/26 07:36:30;;;;;;;;;;;11.20;18.28;;;;;;2674983;76;20649;-91
2023/03/26 07:39:59;;;;;;;;;;;11.14;18.09;;;;;;2674626;76;20437;-91
2023/03/26 07:43:27;;;;;;;;;;;11.00;18.06;;;;;;2674256;76;20522;-91
2023/03/26 07:46:55;;;;;;;;;;;10.72;18.02;;;;;;2673338;76;20462;-90
2023/03/26 07:50:23;;;;;;;;;;;10.55;18.95;;;;;;2672160;76;20451;-91
2023/03/26 07:53:51;;;;;;;;;;;10.39;19.11;;;;;;2673217;76;20448;-90
2023/03/26 07:57:19;;;;;;;;;;;10.35;19.54;;;;;;2674708;76;20434;-90
2023/03/26 08:00:47;;;;;;;;;;;10.34;19.41;;;;;;2674153;76;20419;-91
2023/03/26 08:04:16;;;;;;;;;;;10.56;19.73;;;;;;2674989;76;20698;-90
2023/03/26 08:07:44;;;;;;;;;;;10.79;19.63;;;;;;2674273;76;20328;-91
2023/03/26 08:11:12;;;;;;;;;;;10.81;19.76;;;;;;2674559;76;20410;-91
2023/03/26 08:14:40;;;;;;;;;;;10.81;19.89;;;;;;2674669;76;20434;-91
2023/03/26 08:18:08;;;;;;;;;;;10.90;20.21;;;;;;2674597;76;20435;-91
2023/03/26 08:21:36;;;;;;;;;;;10.89;20.32;;;;;;2674555;76;20318;-91
2023/03/26 08:25:05;;;;;;;;;;;10.96;20.65;;;;;;2673781;76;20464;-91
2023/03/26 08:28:33;;;;;;;;;;;11.18;20.59;;;;;;2674205;76;20881;-91
2023/03/26 08:32:01;;;;;;;;;;;11.40;20.60;;;;;;2674794;76;20949;-90
2023/03/26 08:35:29;;;;;;;;;;;11.59;20.65;;;;;;2674226;76;20470;-91
2023/03/26 08:39:03;;;;;;;;;;;11.85;20.54;;;;;;2675175;76;20418;-92
2023/03/26 08:42:27;;;;;;;;;;;11.93;20.36;;;;;;2674855;76;20430;-90
2023/03/26 08:45:56;;;;;;;;;;;11.94;20.42;;;;;;2674931;76;20425;-91
2023/03/26 08:49:24;;;;;;;;;;;11.94;20.52;;;;;;2675089;76;20437;-91
2023/03/26 08:52:52;;;;;;;;;;;11.88;20.41;;;;;;2674610;76;20454;-91
2023/03/26 08:56:20;;;;;;;;;;;12.03;20.81;;;;;;2674788;76;20429;-91
2023/03/26 08:59:48;;;;;;;;;;;12.01;20.64;;;;;;2674875;76;20314;-91
2023/03/26 09:03:16;;;;;;;;;;;11.86;20.66;;;;;;2673974;76;20480;-91
2023/03/26 09:06:44;;;;;;;;;;;11.57;20.54;;;;;;2674978;76;20431;-91
2023/03/26 09:10:13;;;;;;;;;;;11.43;21.17;;;;;;2674880;76;20416;-91
2023/03/26 09:13:41;;;;;;;;;;;11.32;21.10;;;;;;2674970;76;20418;-90
2023/03/26 09:17:11;;;;;;;;;;;11.29;21.59;;;;;;2674827;76;20503;-91
2023/03/26 09:20:40;;;;;;;;;;;11.18;21.44;;;;;;2675385;76;20436;-90
2023/03/26 09:24:08;;;;;;;;;;;11.22;21.89;;;;;;2673795;76;20304;-91
2023/03/26 09:27:36;;;;;;;;;;;11.27;21.87;;;;;;2673857;76;20300;-90
2023/03/26 09:31:04;;;;;;;;;;;11.52;22.17;;;;;;2673737;76;20322;-91
2023/03/26 09:34:33;;;;;;;;;;;11.76;21.98;;;;;;2673164;76;20774;-91
2023/03/26 09:38:02;;;;;;;;;;;11.70;21.94;;;;;;2673731;76;20402;-91
2023/03/26 09:41:30;;;;;;;;;;;11.39;22.14;;;;;;2673566;76;20458;-90
2023/03/26 09:44:58;;;;;;;;;;;11.07;23.33;;;;;;2673451;76;20466;-91
2023/03/26 09:48:26;;;;;;;;;;;10.95;23.86;;;;;;2672892;76;21091;-90
2023/03/26 09:51:54;;;;;;;;;;;11.22;24.40;;;;;;2673498;76;20421;-91
2023/03/26 09:55:23;;;;;;;;;;;11.53;24.04;;;;;;2673214;76;20436;-91
2023/03/26 09:58:51;;;;;;;;;;;11.72;23.49;;;;;;2672880;76;20594;-90
2023/03/26 10:02:19;;;;;;;;;;;11.92;22.96;;;;;;2673224;76;20969;-90
2023/03/26 10:05:47;;;;;;;;;;;11.87;23.03;;;;;;2673475;76;20909;-90
2023/03/26 10:09:16;;;;;;;;;;;11.85;23.20;;;;;;2673107;76;20523;-91
2023/03/26 10:12:47;;;;;;;;;;;11.85;23.04;;;;;;2672962;76;20297;-90
2023/03/26 10:16:15;;;;;;;;;;;11.74;23.08;;;;;;2672956;76;20453;-91
2023/03/26 10:19:43;;;;;;;;;;;11.86;23.21;;;;;;2671019;76;20496;-90
2023/03/26 10:23:11;;;;;;;;;;;12.17;22.84;;;;;;2672204;76;20331;-90
2023/03/26 10:26:40;;;;;;;;;;;12.06;23.42;;;;;;2672539;76;20434;-90
2023/03/26 10:30:08;;;;;;;;;;;12.08;23.62;;;;;;2671121;76;20801;-90
2023/03/26 10:33:36;;;;;;;;;;;12.47;23.02;;;;;;2671880;76;20466;-91
2023/03/26 10:37:05;;;;;;;;;;;12.94;22.70;;;;;;2671718;76;20449;-90
2023/03/26 10:40:33;;;;;;;;;;;12.94;22.92;;;;;;2670939;76;21246;-90
2023/03/26 10:44:01;;;;;;;;;;;12.76;23.24;;;;;;2670229;76;20763;-90
2023/03/26 10:47:29;;;;;;;;;;;12.66;23.03;;;;;;2671571;76;20502;-91
2023/03/26 10:50:57;;;;;;;;;;;12.49;23.59;;;;;;2671437;76;20431;-91
2023/03/26 10:54:25;;;;;;;;;;;12.12;23.30;;;;;;2671320;76;20469;-90
2023/03/26 10:57:54;;;;;;;;;;;11.70;23.59;;;;;;2671556;76;20429;-91
2023/03/26 11:01:23;;;;;;;;;;;11.40;23.77;;;;;;2671102;76;20425;-90
2023/03/26 11:04:56;;;;;;;;;;;11.18;24.21;;;;;;2671589;76;20468;-91
2023/03/26 11:08:21;;;;;;;;;;;10.81;23.50;;;;;;2671798;76;20952;-89
2023/03/26 11:11:49;;;;;;;;;;;10.93;24.69;;;;;;2666805;76;21051;-89
2023/03/26 11:15:18;;;;;;;;;;;11.43;24.40;;;;;;2669005;76;21504;-90
2023/03/26 11:18:46;;;;;;;;;;;11.56;23.25;;;;;;2668955;76;20473;-90
2023/03/26 11:22:14;;;;;;;;;;;12.48;23.50;;;;;;2669962;76;20425;-90
2023/03/26 11:25:42;;;;;;;;;;;13.10;22.73;;;;;;2671685;76;20448;-90
2023/03/26 11:29:11;;;;;;;;;;;13.37;21.34;;;;;;2668053;76;20473;-90
2023/03/26 11:32:39;;;;;;;;;;;13.80;20.68;;;;;;2670341;76;20802;-90
2023/03/26 11:36:07;;;;;;;;;;;14.10;19.15;;;;;;2671443;76;20425;-90
2023/03/26 11:39:36;;;;;;;;;;;14.14;18.86;;;;;;2670826;76;20376;-89
2023/03/26 11:43:05;;;;;;;;;;;14.37;17.79;;;;;;2671647;76;20450;-89
2023/03/26 11:46:33;;;;;;;;;;;14.88;17.86;;;;;;2671481;76;20428;-89
2023/03/26 11:50:01;;;;;;;;;;;15.22;15.62;;;;;;2668963;76;20549;-90
2023/03/26 11:53:29;;;;;;;;;;;15.45;15.26;;;;;;2671173;76;20933;-91
2023/03/26 11:57:00;;;;;;;;;;;14.81;10.62;;;;;;2670452;76;20437;-90
2023/03/26 12:00:29;;;;;;;;;;;14.97;10.65;;;;;;2670765;76;20888;-90
2023/03/26 12:03:57;;;;;;;;;;;14.23;9.85;;;;;;2670472;76;20339;-91
2023/03/26 12:07:25;;;;;;;;;;;14.48;9.92;;;;;;2669546;76;20941;-90
2023/03/26 12:10:54;;;;;;;;;;;14.73;7.97;;;;;;2671660;76;20564;-91
2023/03/26 12:14:22;;;;;;;;;;;15.04;7.62;;;;;;2671049;76;20736;-90
2023/03/26 12:17:52;;;;;;;;;;;15.02;7.66;;;;;;2670201;76;20988;-93
2023/03/26 12:21:20;;;;;;;;;;;14.48;6.49;;;;;;2672291;76;20340;-93
2023/03/26 12:24:48;;;;;;;;;;;14.42;7.15;;;;;;2673936;76;20437;-92
2023/03/26 12:28:17;;;;;;;;;;;14.37;6.10;;;;;;2672636;76;20413;-94
2023/03/26 12:31:46;;;;;;;;;;;14.75;6.39;;;;;;2672294;76;20449;-92
2023/03/26 12:35:17;;;;;;;;;;;14.80;6.54;;;;;;2683207;76;20294;-94
2023/03/26 12:38:44;;;;;;;;;;;14.92;6.82;;;;;;2674963;76;20344;-93
2023/03/26 12:42:13;;;;;;;;;;;14.70;6.43;;;;;;2671559;76;20476;-93
2023/03/26 12:45:41;;;;;;;;;;;14.50;6.40;;;;;;2671986;76;20429;-92
2023/03/26 12:49:14;;;;;;;;;;;14.64;7.13;;;;;;2672557;76;20456;-93
2023/03/26 12:52:42;;;;;;;;;;;14.43;6.57;;;;;;2672176;76;20423;-90
2023/03/26 12:56:11;;;;;;;;;;;14.07;6.54;;;;;;2672033;76;20441;-90
2023/03/26 12:59:39;;;;;;;;;;;13.25;6.67;;;;;;2670233;76;20321;-92
2023/03/26 13:03:07;;;;;;;;;;;12.73;7.21;;;;;;2672239;76;20317;-89
2023/03/26 13:06:35;;;;;;;;;;;12.77;8.50;;;;;;2672382;76;20785;-91
2023/03/26 13:10:07;;;;;;;;;;;12.51;9.05;;;;;;2672852;76;20298;-91
2023/03/26 13:13:45;;;;;;;;;;;;;;;;;;;;;
2023/03/26 13:17:10;;;;;;;;;;;11.24;6.96;;;;;;2670429;76;20314;-91
2023/03/26 13:20:42;;;;;;;;;;;10.07;3.35;;;;;;2671170;76;21026;-90
2023/03/26 13:24:12;;;;;;;;;;;9.95;4.59;;;;;;2669155;76;20468;-89
2023/03/26 13:27:40;;;;;;;;;;;9.42;5.32;;;;;;2670575;76;20416;-89
2023/03/26 13:31:09;;;;;;;;;;;9.11;6.50;;;;;;2671374;76;20433;-88
2023/03/26 13:34:38;;;;;;;;;;;9.10;7.83;;;;;;2670934;76;20459;-90
2023/03/26 13:38:06;;;;;;;;;;;8.92;8.11;;;;;;2671353;76;20972;-89
2023/03/26 13:41:34;;;;;;;;;;;8.21;12.55;;;;;;2670703;76;20427;-89
2023/03/26 13:45:10;;;;;;;;;;;7.96;15.29;;;;;;2671192;76;20442;-92
2023/03/26 13:48:34;;;;;;;;;;;8.00;16.70;;;;;;2671779;76;20470;-92
2023/03/26 13:52:07;;;;;;;;;;;7.91;17.04;;;;;;2671469;76;21150;-93
2023/03/26 13:55:39;;;;;;;;;;;7.53;17.93;;;;;;2676607;76;20338;-93
2023/03/26 13:59:07;;;;;;;;;;;7.69;21.15;;;;;;2676402;76;20409;-92
2023/03/26 14:02:43;;;;;;;;;;;7.30;21.73;;;;;;2674038;76;20891;-93
2023/03/26 14:06:16;;;;;;;;;;;6.08;20.90;;;;;;2673241;76;20355;-94
2023/03/26 14:09:53;;;;;;;;;;;;;;;;;;;;;
2023/03/26 14:13:20;;;;;;;;;;;5.36;37.56;;;;;;2673475;76;20300;-93
2023/03/26 14:16:53;;;;;;;;;;;5.72;41.26;;;;;;2672443;76;20444;-91
2023/03/26 14:20:22;;;;;;;;;;;6.52;43.21;;;;;;2671552;76;20318;-91
2023/03/26 14:23:56;;;;;;;;;;;7.09;40.41;;;;;;2669803;76;20491;-92
2023/03/26 14:27:29;;;;;;;;;;;7.55;37.02;;;;;;2671264;76;20315;-92
2023/03/26 14:30:55;;;;;;;;;;;8.36;37.00;;;;;;2671308;76;20924;-92
2023/03/26 14:34:23;;;;;;;;;;;8.89;35.64;;;;;;2675262;76;20356;-92
2023/03/26 14:37:51;;;;;;;;;;;9.16;34.15;;;;;;2679872;76;20438;-91
2023/03/26 14:41:19;;;;;;;;;;;9.39;33.99;;;;;;2677420;76;20329;-93
2023/03/26 14:44:47;;;;;;;;;;;9.50;32.74;;;;;;2671790;76;20498;-92
2023/03/26 14:48:15;;;;;;;;;;;9.65;32.28;;;;;;2672112;76;20426;-92
2023/03/26 14:51:44;;;;;;;;;;;9.68;31.35;;;;;;2671171;76;20506;-90
2023/03/26 14:55:12;;;;;;;;;;;9.71;31.05;;;;;;2673003;76;20347;-91
2023/03/26 14:58:40;;;;;;;;;;;9.72;30.26;;;;;;2672121;76;20471;-91
2023/03/26 15:02:08;;;;;;;;;;;9.79;30.87;;;;;;2672514;76;20345;-92
2023/03/26 15:05:36;;;;;;;;;;;9.94;30.85;;;;;;2670801;76;21265;-93
2023/03/26 15:09:05;;;;;;;;;;;10.07;29.90;;;;;;2672319;76;20467;-93
2023/03/26 15:12:34;;;;;;;;;;;10.29;29.52;;;;;;2672443;76;20454;-92
2023/03/26 15:16:02;;;;;;;;;;;10.40;28.68;;;;;;2670928;76;20818;-92
2023/03/26 15:19:31;;;;;;;;;;;10.42;28.57;;;;;;2669939;76;20449;-93
2023/03/26 15:22:59;;;;;;;;;;;10.33;27.97;;;;;;2669160;76;20940;-91
2023/03/26 15:26:29;;;;;;;;;;;10.27;28.98;;;;;;2669730;76;21412;-92
2023/03/26 15:30:02;;;;;;;;;;;10.15;28.65;;;;;;2669737;76;20486;-92
2023/03/26 15:33:35;;;;;;;;;;;9.98;29.04;;;;;;2670205;76;20316;-92
2023/03/26 15:37:10;;;;;;;;;;;9.95;30.32;;;;;;2675609;76;20261;-92
2023/03/26 15:40:37;;;;;;;;;;;9.84;30.28;;;;;;2675082;76;20432;-91
2023/03/26 15:44:05;;;;;;;;;;;9.79;31.20;;;;;;2670482;76;20438;-92
2023/03/26 15:47:36;;;;;;;;;;;9.76;31.90;;;;;;2670018;76;20310;-92
2023/03/26 15:51:09;;;;;;;;;;;9.77;32.70;;;;;;2669626;76;20472;-92
2023/03/26 15:54:37;;;;;;;;;;;9.74;33.57;;;;;;2671132;76;20431;-92
2023/03/26 15:58:07;;;;;;;;;;;9.71;33.72;;;;;;2670612;76;20437;-92
2023/03/26 16:01:41;;;;;;;;;;;9.67;34.18;;;;;;2670586;76;20406;-93
2023/03/26 16:05:08;;;;;;;;;;;9.62;33.84;;;;;;2671722;76;20425;-93
2023/03/26 16:08:38;;;;;;;;;;;9.59;33.52;;;;;;2671071;76;20470;-91
2023/03/26 16:12:11;;;;;;;;;;;10.14;32.48;;;;;;2669036;76;20443;-91
2023/03/26 16:15:36;;;;;;;;;;;13.10;27.52;;;;;;2669444;76;20451;-91
2023/03/26 16:19:09;;;;;;;;;;;12.60;16.35;;;;;;2670003;76;20417;-92
2023/03/26 16:22:40;;;;;;;;;;;16.36;15.22;;;;;;2668847;76;21259;-92
2023/03/26 16:26:08;;;;;;;;;;;18.81;4.54;;;;;;2670500;76;20468;-91
2023/03/26 16:29:42;;;;;;;;;;;15.21;9.56;;;;;;2670319;76;21028;-91
2023/03/26 16:33:12;;;;;;;;;;;12.20;13.06;;;;;;2670712;76;20485;-91
2023/03/26 16:36:40;;;;;;;;;;;11.15;18.22;;;;;;2670336;76;20422;-90
2023/03/26 16:40:11;;;;;;;;;;;10.50;20.47;;;;;;2669689;76;20510;-92
2023/03/26 16:43:39;;;;;;;;;;;10.28;23.30;;;;;;2669589;76;20476;-92
2023/03/26 16:47:09;;;;;;;;;;;10.01;23.82;;;;;;2671633;76;20404;-91
2023/03/26 16:50:41;;;;;;;;;;;9.89;24.57;;;;;;2676732;76;20359;-94
2023/03/26 16:54:11;;;;;;;;;;;9.67;23.81;;;;;;2677033;76;20891;-94
2023/03/26 16:57:41;;;;;;;;;;;9.46;24.06;;;;;;2677607;76;20445;-94
2023/03/26 17:01:10;;;;;;;;;;;9.42;25.61;;;;;;2680906;76;20403;-94
2023/03/26 17:04:41;;;;;;;;;;;9.37;26.70;;;;;;2676230;76;20455;-91
2023/03/26 17:08:15;;;;;;;;;;;9.11;26.91;;;;;;2669315;76;20461;-92
2023/03/26 17:11:39;;;;;;;;;;;8.91;27.33;;;;;;2667617;76;20461;-89
2023/03/26 17:15:09;;;;;;;;;;;8.79;28.29;;;;;;2669296;76;20409;-89
2023/03/26 17:18:39;;;;;;;;;;;8.68;28.68;;;;;;2670075;76;20493;-92
2023/03/26 17:22:10;;;;;;;;;;;8.60;29.42;;;;;;2669914;76;20760;-91
2023/03/26 17:25:38;;;;;;;;;;;8.47;29.31;;;;;;2670282;76;20444;-91
2023/03/26 17:29:06;;;;;;;;;;;8.29;29.08;;;;;;2669921;76;20429;-90
2023/03/26 17:32:38;;;;;;;;;;;8.19;29.32;;;;;;2669689;76;20474;-93
2023/03/26 17:36:06;;;;;;;;;;;8.13;29.35;;;;;;2672637;76;20416;-94
2023/03/26 17:39:42;;;;;;;;;;;8.11;29.22;;;;;;2669696;76;20919;-91
2023/03/26 17:43:07;;;;;;;;;;;8.17;30.22;;;;;;2668926;76;20457;-91
2023/03/26 17:46:36;;;;;;;;;;;8.24;29.51;;;;;;2671514;76;20409;-90
2023/03/26 17:50:04;;;;;;;;;;;8.35;30.51;;;;;;2670774;76;20401;-91
2023/03/26 17:53:32;;;;;;;;;;;8.43;30.67;;;;;;2669990;76;20482;-91
2023/03/26 17:57:00;;;;;;;;;;;8.45;29.05;;;;;;2669956;76;20896;-90
2023/03/26 18:00:28;;;;;;;;;;;8.51;29.47;;;;;;2669473;76;20443;-91
2023/03/26 18:03:58;;;;;;;;;;;8.42;28.53;;;;;;2669320;76;20438;-91
2023/03/26 18:07:27;;;;;;;;;;;8.21;28.94;;;;;;2670497;76;20451;-91
2023/03/26 18:10:55;;;;;;;;;;;8.07;31.12;;;;;;2670939;76;20442;-90
2023/03/26 18:14:23;;;;;;;;;;;8.00;32.60;;;;;;2668698;76;21158;-91
2023/03/26 18:17:54;;;;;;;;;;;7.94;32.81;;;;;;2669800;76;20408;-91
2023/03/26 18:21:22;;;;;;;;;;;7.82;32.15;;;;;;2670356;76;20922;-90
2023/03/26 18:24:52;;;;;;;;;;;7.64;31.35;;;;;;2669997;76;20513;-90
2023/03/26 18:28:20;;;;;;;;;;;7.62;31.27;;;;;;2670328;76;20319;-90
2023/03/26 18:31:48;;;;;;;;;;;7.55;30.58;;;;;;2671069;76;20443;-91
2023/03/26 18:35:18;;;;;;;;;;;7.50;30.58;;;;;;2669942;76;20345;-91
2023/03/26 18:38:47;;;;;;;;;;;7.39;29.37;;;;;;2668771;76;20891;-91
2023/03/26 18:42:18;;;;;;;;;;;7.24;27.65;;;;;;2668673;76;20481;-90
2023/03/26 18:45:46;;;;;;;;;;;7.32;29.10;;;;;;2670521;76;20414;-90
2023/03/26 18:49:16;;;;;;;;;;;7.33;28.86;;;;;;2669859;76;20511;-90
2023/03/26 18:52:44;;;;;;;;;;;7.25;27.91;;;;;;2669436;76;20464;-90
2023/03/26 18:56:13;;;;;;;;;;;7.33;29.16;;;;;;2669965;76;20444;-91
2023/03/26 18:59:43;;;;;;;;;;;7.25;28.40;;;;;;2666816;76;20890;-91
2023/03/26 19:03:11;;;;;;;;;;;7.15;28.90;;;;;;2667947;76;20647;-90
2023/03/26 19:06:39;;;;;;;;;;;7.08;28.80;;;;;;2669432;76;20446;-92
2023/03/26 19:10:07;;;;;;;;;;;7.05;28.81;;;;;;2668555;76;20424;-92
2023/03/26 19:13:36;;;;;;;;;;;6.99;28.29;;;;;;2668963;76;20463;-91
2023/03/26 19:17:10;;;;;;;;;;;6.87;27.78;;;;;;2668609;76;20912;-89
2023/03/26 19:20:38;;;;;;;;;;;6.74;27.13;;;;;;2670045;76;20441;-89
2023/03/26 19:24:06;;;;;;;;;;;6.69;26.71;;;;;;2670729;76;20417;-90
2023/03/26 19:27:37;;;;;;;;;;;6.70;26.80;;;;;;2666173;76;20412;-90
2023/03/26 19:31:04;;;;;;;;;;;6.74;27.08;;;;;;2668130;76;20835;-90
2023/03/26 19:34:32;;;;;;;;;;;6.80;27.20;;;;;;2669481;76;20475;-91
2023/03/26 19:38:00;;;;;;;;;;;6.69;26.14;;;;;;2669042;76;20409;-90
2023/03/26 19:41:28;;;;;;;;;;;6.75;26.87;;;;;;2668780;76;20459;-90
2023/03/26 19:44:56;;;;;;;;;;;6.84;27.15;;;;;;2669199;76;20440;-90
2023/03/26 19:48:27;;;;;;;;;;;6.87;27.06;;;;;;2667901;76;20906;-89
2023/03/26 19:51:54;;;;;;;;;;;6.90;26.91;;;;;;2669382;76;20457;-90
2023/03/26 19:55:26;;;;;;;;;;;7.02;27.33;;;;;;2669047;76;20451;-91
2023/03/26 19:58:54;;;;;;;;;;;6.93;25.80;;;;;;2668407;76;20480;-90
2023/03/26 20:02:22;;;;;;;;;;;7.04;26.31;;;;;;2669604;76;20563;-91
2023/03/26 20:05:51;;;;;;;;;;;6.93;24.91;;;;;;2669388;76;20944;-91
2023/03/26 20:09:20;;;;;;;;;;;7.03;25.67;;;;;;2667689;76;20930;-90
2023/03/26 20:12:50;;;;;;;;;;;7.01;24.67;;;;;;2668032;76;20323;-91
2023/03/26 20:16:18;;;;;;;;;;;7.15;25.53;;;;;;2668663;76;20418;-90
2023/03/26 20:19:47;;;;;;;;;;;7.29;25.90;;;;;;2670122;76;20432;-90
2023/03/26 20:23:20;;;;;;;;;;;7.29;26.13;;;;;;2668768;76;20443;-93
2023/03/26 20:26:48;;;;;;;;;;;7.10;25.56;;;;;;2669929;76;20456;-94
2023/03/26 20:30:16;;;;;;;;;;;7.03;26.35;;;;;;2668944;76;20471;-92